sensor_id;sensor_type;location;lat;lon;timestamp;P1;durP1;ratioP1;P2;durP2;ratioP2
19554;SDS011;9924;50.828;6.440;2023-02-01T00:02:28;15.65;;;5.60;;
19554;SDS011;9924;50.828;6.440;2023-02-01T00:05:13;14.23;;;5.03;;
19554;SDS011;9924;50.828;6.440;2023-02-01T00:07:57;13.93;;;4.45;;
19554;SDS011;9924;50.828;6.440;2023-02-01T00:10:42;14.55;;;4.70;;
19554;SDS011;9924;50.828;6.440;2023-02-01T00:13:30;13.57;;;4.53;;
19554;SDS011;9924;50.828;6.440;2023-02-01T00:19:06;19.38;;;4.78;;
19554;SDS011;9924;50.828;6.440;2023-02-01T00:21:53;17.20;;;4.78;;
19554;SDS011;9924;50.828;6.440;2023-02-01T00:24:37;14.10;;;4.30;;
19554;SDS011;9924;50.828;6.440;2023-02-01T00:27:22;15.90;;;4.97;;
19554;SDS011;9924;50.828;6.440;2023-02-01T00:30:06;14.10;;;4.50;;
19554;SDS011;9924;50.828;6.440;2023-02-01T00:32:52;19.75;;;4.55;;
19554;SDS011;9924;50.828;6.440;2023-02-01T00:35:37;16.52;;;4.70;;
19554;SDS011;9924;50.828;6.440;2023-02-01T00:38:24;13.13;;;4.40;;
19554;SDS011;9924;50.828;6.440;2023-02-01T00:41:19;17.58;;;4.88;;
19554;SDS011;9924;50.828;6.440;2023-02-01T00:44:04;15.75;;;5.63;;
19554;SDS011;9924;50.828;6.440;2023-02-01T00:46:49;16.35;;;5.80;;
19554;SDS011;9924;50.828;6.440;2023-02-01T00:49:33;10.40;;;5.55;;
19554;SDS011;9924;50.828;6.440;2023-02-01T00:52:17;17.67;;;5.75;;
19554;SDS011;9924;50.828;6.440;2023-02-01T00:55:02;11.95;;;6.22;;
19554;SDS011;9924;50.828;6.440;2023-02-01T00:57:46;19.25;;;6.72;;
19554;SDS011;9924;50.828;6.440;2023-02-01T01:00:31;20.73;;;5.93;;
19554;SDS011;9924;50.828;6.440;2023-02-01T01:03:16;17.73;;;6.00;;
19554;SDS011;9924;50.828;6.440;2023-02-01T01:06:04;24.33;;;6.53;;
19554;SDS011;9924;50.828;6.440;2023-02-01T01:08:51;16.85;;;6.53;;
19554;SDS011;9924;50.828;6.440;2023-02-01T01:11:37;20.25;;;6.70;;
19554;SDS011;9924;50.828;6.440;2023-02-01T01:14:22;19.17;;;7.40;;
19554;SDS011;9924;50.828;6.440;2023-02-01T01:17:07;19.00;;;6.65;;
19554;SDS011;9924;50.828;6.440;2023-02-01T01:19:52;13.13;;;5.65;;
19554;SDS011;9924;50.828;6.440;2023-02-01T01:22:36;17.00;;;6.18;;
19554;SDS011;9924;50.828;6.440;2023-02-01T01:25:20;17.85;;;6.70;;
19554;SDS011;9924;50.828;6.440;2023-02-01T01:28:05;19.38;;;6.95;;
19554;SDS011;9924;50.828;6.440;2023-02-01T01:30:50;17.67;;;6.53;;
19554;SDS011;9924;50.828;6.440;2023-02-01T01:33:34;20.83;;;6.68;;
19554;SDS011;9924;50.828;6.440;2023-02-01T01:36:19;19.52;;;6.60;;
19554;SDS011;9924;50.828;6.440;2023-02-01T01:39:04;27.52;;;7.97;;
19554;SDS011;9924;50.828;6.440;2023-02-01T01:41:48;22.63;;;7.43;;
19554;SDS011;9924;50.828;6.440;2023-02-01T01:47:43;17.42;;;6.72;;
19554;SDS011;9924;50.828;6.440;2023-02-01T01:50:33;16.65;;;6.78;;
19554;SDS011;9924;50.828;6.440;2023-02-01T01:53:26;25.17;;;6.38;;
19554;SDS011;9924;50.828;6.440;2023-02-01T01:56:16;18.13;;;6.93;;
19554;SDS011;9924;50.828;6.440;2023-02-01T01:59:01;20.65;;;6.93;;
19554;SDS011;9924;50.828;6.440;2023-02-01T02:01:46;21.38;;;6.40;;
19554;SDS011;9924;50.828;6.440;2023-02-01T02:04:32;21.73;;;6.72;;
19554;SDS011;9924;50.828;6.440;2023-02-01T02:07:19;17.80;;;5.53;;
19554;SDS011;9924;50.828;6.440;2023-02-01T02:10:08;15.02;;;5.18;;
19554;SDS011;9924;50.828;6.440;2023-02-01T02:12:54;16.55;;;5.78;;
19554;SDS011;9924;50.828;6.440;2023-02-01T02:21:53;19.02;;;5.38;;
19554;SDS011;9924;50.828;6.440;2023-02-01T02:25:17;16.50;;;5.40;;
19554;SDS011;9924;50.828;6.440;2023-02-01T02:35:10;20.88;;;5.45;;
19554;SDS011;9924;50.828;6.440;2023-02-01T02:38:03;20.13;;;5.13;;
19554;SDS011;9924;50.828;6.440;2023-02-01T02:43:48;24.15;;;6.53;;
19554;SDS011;9924;50.828;6.440;2023-02-01T02:47:02;14.48;;;5.35;;
19554;SDS011;9924;50.828;6.440;2023-02-01T02:56:55;16.98;;;5.63;;
19554;SDS011;9924;50.828;6.440;2023-02-01T03:00:03;15.55;;;4.72;;
19554;SDS011;9924;50.828;6.440;2023-02-01T03:03:10;19.05;;;6.57;;
19554;SDS011;9924;50.828;6.440;2023-02-01T03:06:14;20.50;;;4.82;;
19554;SDS011;9924;50.828;6.440;2023-02-01T03:09:02;14.68;;;4.53;;
19554;SDS011;9924;50.828;6.440;2023-02-01T03:11:51;21.70;;;5.25;;
19554;SDS011;9924;50.828;6.440;2023-02-01T03:15:05;14.95;;;5.15;;
19554;SDS011;9924;50.828;6.440;2023-02-01T03:17:54;14.65;;;4.72;;
19554;SDS011;9924;50.828;6.440;2023-02-01T03:20:39;18.20;;;5.38;;
19554;SDS011;9924;50.828;6.440;2023-02-01T03:23:27;17.48;;;5.50;;
19554;SDS011;9924;50.828;6.440;2023-02-01T03:26:17;24.98;;;6.47;;
19554;SDS011;9924;50.828;6.440;2023-02-01T03:29:23;19.48;;;6.78;;
19554;SDS011;9924;50.828;6.440;2023-02-01T03:32:13;20.08;;;7.47;;
19554;SDS011;9924;50.828;6.440;2023-02-01T03:34:57;22.85;;;7.30;;
19554;SDS011;9924;50.828;6.440;2023-02-01T03:37:42;24.27;;;7.10;;
19554;SDS011;9924;50.828;6.440;2023-02-01T03:40:27;22.77;;;6.50;;
19554;SDS011;9924;50.828;6.440;2023-02-01T03:43:17;21.38;;;6.50;;
19554;SDS011;9924;50.828;6.440;2023-02-01T03:46:05;19.33;;;6.65;;
19554;SDS011;9924;50.828;6.440;2023-02-01T03:48:56;17.13;;;6.13;;
19554;SDS011;9924;50.828;6.440;2023-02-01T03:51:40;18.83;;;5.88;;
19554;SDS011;9924;50.828;6.440;2023-02-01T03:54:25;17.58;;;6.25;;
19554;SDS011;9924;50.828;6.440;2023-02-01T03:57:13;20.83;;;5.60;;
19554;SDS011;9924;50.828;6.440;2023-02-01T04:00:07;16.58;;;6.05;;
19554;SDS011;9924;50.828;6.440;2023-02-01T04:03:06;20.70;;;6.22;;
19554;SDS011;9924;50.828;6.440;2023-02-01T04:05:51;21.65;;;5.50;;
19554;SDS011;9924;50.828;6.440;2023-02-01T04:08:36;17.45;;;5.38;;
19554;SDS011;9924;50.828;6.440;2023-02-01T04:11:20;25.13;;;6.15;;
19554;SDS011;9924;50.828;6.440;2023-02-01T04:14:04;17.45;;;5.38;;
19554;SDS011;9924;50.828;6.440;2023-02-01T04:16:48;17.70;;;5.93;;
19554;SDS011;9924;50.828;6.440;2023-02-01T04:19:33;20.98;;;5.40;;
19554;SDS011;9924;50.828;6.440;2023-02-01T04:22:17;20.38;;;5.40;;
19554;SDS011;9924;50.828;6.440;2023-02-01T04:25:01;20.75;;;6.38;;
19554;SDS011;9924;50.828;6.440;2023-02-01T04:27:52;19.92;;;5.22;;
19554;SDS011;9924;50.828;6.440;2023-02-01T04:30:36;11.10;;;3.85;;
19554;SDS011;9924;50.828;6.440;2023-02-01T04:33:22;16.98;;;4.78;;
19554;SDS011;9924;50.828;6.440;2023-02-01T04:36:06;20.10;;;4.53;;
19554;SDS011;9924;50.828;6.440;2023-02-01T04:38:51;18.23;;;4.35;;
19554;SDS011;9924;50.828;6.440;2023-02-01T04:41:35;16.08;;;4.35;;
19554;SDS011;9924;50.828;6.440;2023-02-01T04:44:20;15.65;;;4.38;;
19554;SDS011;9924;50.828;6.440;2023-02-01T04:47:05;16.50;;;4.47;;
19554;SDS011;9924;50.828;6.440;2023-02-01T04:49:49;17.27;;;4.07;;
19554;SDS011;9924;50.828;6.440;2023-02-01T04:52:33;17.08;;;3.85;;
19554;SDS011;9924;50.828;6.440;2023-02-01T04:55:17;14.20;;;3.42;;
19554;SDS011;9924;50.828;6.440;2023-02-01T04:58:01;18.98;;;4.43;;
19554;SDS011;9924;50.828;6.440;2023-02-01T05:00:45;13.15;;;3.58;;
19554;SDS011;9924;50.828;6.440;2023-02-01T05:03:30;18.55;;;3.70;;
19554;SDS011;9924;50.828;6.440;2023-02-01T05:06:15;13.80;;;2.97;;
19554;SDS011;9924;50.828;6.440;2023-02-01T05:08:59;13.35;;;4.30;;
19554;SDS011;9924;50.828;6.440;2023-02-01T05:11:44;16.25;;;2.90;;
19554;SDS011;9924;50.828;6.440;2023-02-01T05:14:47;17.15;;;3.75;;
19554;SDS011;9924;50.828;6.440;2023-02-01T05:17:32;25.13;;;3.83;;
19554;SDS011;9924;50.828;6.440;2023-02-01T05:20:16;15.70;;;3.35;;
19554;SDS011;9924;50.828;6.440;2023-02-01T05:23:01;19.63;;;4.07;;
19554;SDS011;9924;50.828;6.440;2023-02-01T05:25:46;18.58;;;3.20;;
19554;SDS011;9924;50.828;6.440;2023-02-01T05:28:30;19.03;;;3.40;;
19554;SDS011;9924;50.828;6.440;2023-02-01T05:31:14;19.33;;;4.35;;
19554;SDS011;9924;50.828;6.440;2023-02-01T05:33:58;14.10;;;3.13;;
19554;SDS011;9924;50.828;6.440;2023-02-01T05:36:43;15.45;;;3.50;;
19554;SDS011;9924;50.828;6.440;2023-02-01T05:39:27;17.00;;;3.77;;
19554;SDS011;9924;50.828;6.440;2023-02-01T05:42:12;14.93;;;3.65;;
19554;SDS011;9924;50.828;6.440;2023-02-01T05:44:56;15.02;;;3.28;;
19554;SDS011;9924;50.828;6.440;2023-02-01T05:47:40;14.63;;;3.20;;
19554;SDS011;9924;50.828;6.440;2023-02-01T05:50:26;15.93;;;3.28;;
19554;SDS011;9924;50.828;6.440;2023-02-01T05:53:10;17.38;;;3.50;;
19554;SDS011;9924;50.828;6.440;2023-02-01T05:55:54;17.73;;;3.07;;
19554;SDS011;9924;50.828;6.440;2023-02-01T05:58:38;15.67;;;3.43;;
19554;SDS011;9924;50.828;6.440;2023-02-01T06:01:22;22.50;;;3.38;;
19554;SDS011;9924;50.828;6.440;2023-02-01T06:04:07;14.80;;;2.93;;
19554;SDS011;9924;50.828;6.440;2023-02-01T06:06:51;15.95;;;3.03;;
19554;SDS011;9924;50.828;6.440;2023-02-01T06:09:36;17.10;;;3.20;;
19554;SDS011;9924;50.828;6.440;2023-02-01T06:12:21;14.67;;;3.13;;
19554;SDS011;9924;50.828;6.440;2023-02-01T06:15:05;13.70;;;3.60;;
19554;SDS011;9924;50.828;6.440;2023-02-01T06:17:50;16.60;;;3.00;;
19554;SDS011;9924;50.828;6.440;2023-02-01T06:20:34;16.73;;;3.00;;
19554;SDS011;9924;50.828;6.440;2023-02-01T06:23:19;16.80;;;3.83;;
19554;SDS011;9924;50.828;6.440;2023-02-01T06:26:07;15.53;;;3.33;;
19554;SDS011;9924;50.828;6.440;2023-02-01T06:28:53;10.83;;;2.83;;
19554;SDS011;9924;50.828;6.440;2023-02-01T06:31:39;16.87;;;3.43;;
19554;SDS011;9924;50.828;6.440;2023-02-01T06:34:23;15.90;;;3.17;;
19554;SDS011;9924;50.828;6.440;2023-02-01T06:37:08;16.40;;;3.87;;
19554;SDS011;9924;50.828;6.440;2023-02-01T06:39:54;25.37;;;3.57;;
19554;SDS011;9924;50.828;6.440;2023-02-01T06:42:39;18.63;;;3.30;;
19554;SDS011;9924;50.828;6.440;2023-02-01T06:45:23;20.53;;;3.67;;
19554;SDS011;9924;50.828;6.440;2023-02-01T06:48:07;24.03;;;3.67;;
19554;SDS011;9924;50.828;6.440;2023-02-01T06:50:51;12.67;;;3.27;;
19554;SDS011;9924;50.828;6.440;2023-02-01T06:53:35;15.20;;;3.50;;
19554;SDS011;9924;50.828;6.440;2023-02-01T06:56:20;14.93;;;3.40;;
19554;SDS011;9924;50.828;6.440;2023-02-01T06:59:05;15.63;;;2.97;;
19554;SDS011;9924;50.828;6.440;2023-02-01T07:01:50;21.30;;;3.70;;
19554;SDS011;9924;50.828;6.440;2023-02-01T07:04:35;15.00;;;3.80;;
19554;SDS011;9924;50.828;6.440;2023-02-01T07:07:19;16.40;;;3.50;;
19554;SDS011;9924;50.828;6.440;2023-02-01T07:10:06;14.27;;;3.20;;
19554;SDS011;9924;50.828;6.440;2023-02-01T07:12:51;19.30;;;3.30;;
19554;SDS011;9924;50.828;6.440;2023-02-01T07:15:35;12.60;;;3.20;;
19554;SDS011;9924;50.828;6.440;2023-02-01T07:18:20;13.33;;;3.10;;
19554;SDS011;9924;50.828;6.440;2023-02-01T07:21:04;13.37;;;3.70;;
19554;SDS011;9924;50.828;6.440;2023-02-01T07:23:48;14.40;;;3.90;;
19554;SDS011;9924;50.828;6.440;2023-02-01T07:26:32;16.50;;;3.10;;
19554;SDS011;9924;50.828;6.440;2023-02-01T07:29:18;15.93;;;3.43;;
19554;SDS011;9924;50.828;6.440;2023-02-01T07:32:02;15.77;;;3.00;;
19554;SDS011;9924;50.828;6.440;2023-02-01T07:34:48;17.80;;;3.43;;
19554;SDS011;9924;50.828;6.440;2023-02-01T07:37:32;20.13;;;3.40;;
19554;SDS011;9924;50.828;6.440;2023-02-01T07:40:16;18.07;;;5.43;;
19554;SDS011;9924;50.828;6.440;2023-02-01T07:43:01;19.03;;;3.67;;
19554;SDS011;9924;50.828;6.440;2023-02-01T07:45:50;19.10;;;3.30;;
19554;SDS011;9924;50.828;6.440;2023-02-01T07:48:36;16.77;;;3.67;;
19554;SDS011;9924;50.828;6.440;2023-02-01T07:51:20;16.57;;;3.83;;
19554;SDS011;9924;50.828;6.440;2023-02-01T07:54:04;20.23;;;3.40;;
19554;SDS011;9924;50.828;6.440;2023-02-01T07:56:49;17.23;;;3.75;;
19554;SDS011;9924;50.828;6.440;2023-02-01T07:59:33;24.17;;;3.73;;
19554;SDS011;9924;50.828;6.440;2023-02-01T08:02:18;16.77;;;4.37;;
19554;SDS011;9924;50.828;6.440;2023-02-01T08:05:02;15.40;;;3.53;;
19554;SDS011;9924;50.828;6.440;2023-02-01T08:07:49;18.17;;;3.40;;
19554;SDS011;9924;50.828;6.440;2023-02-01T08:10:34;13.45;;;3.50;;
19554;SDS011;9924;50.828;6.440;2023-02-01T08:13:18;18.23;;;3.93;;
19554;SDS011;9924;50.828;6.440;2023-02-01T08:16:04;18.50;;;3.00;;
19554;SDS011;9924;50.828;6.440;2023-02-01T08:18:50;18.77;;;3.40;;
19554;SDS011;9924;50.828;6.440;2023-02-01T08:21:34;13.98;;;2.67;;
19554;SDS011;9924;50.828;6.440;2023-02-01T08:24:21;19.70;;;4.13;;
19554;SDS011;9924;50.828;6.440;2023-02-01T08:27:06;14.02;;;3.00;;
19554;SDS011;9924;50.828;6.440;2023-02-01T08:29:50;16.63;;;3.20;;
19554;SDS011;9924;50.828;6.440;2023-02-01T08:32:35;13.90;;;3.08;;
19554;SDS011;9924;50.828;6.440;2023-02-01T08:35:20;15.95;;;3.60;;
19554;SDS011;9924;50.828;6.440;2023-02-01T08:38:04;16.75;;;3.33;;
19554;SDS011;9924;50.828;6.440;2023-02-01T08:40:48;18.53;;;3.70;;
19554;SDS011;9924;50.828;6.440;2023-02-01T08:43:33;15.07;;;3.17;;
19554;SDS011;9924;50.828;6.440;2023-02-01T08:46:17;20.27;;;3.80;;
19554;SDS011;9924;50.828;6.440;2023-02-01T08:49:01;21.70;;;2.90;;
19554;SDS011;9924;50.828;6.440;2023-02-01T08:51:46;13.82;;;2.95;;
19554;SDS011;9924;50.828;6.440;2023-02-01T08:54:30;14.40;;;3.17;;
19554;SDS011;9924;50.828;6.440;2023-02-01T08:57:14;19.33;;;3.95;;
19554;SDS011;9924;50.828;6.440;2023-02-01T08:59:58;16.48;;;2.92;;
19554;SDS011;9924;50.828;6.440;2023-02-01T09:02:43;14.90;;;2.83;;
19554;SDS011;9924;50.828;6.440;2023-02-01T09:05:28;16.42;;;3.20;;
19554;SDS011;9924;50.828;6.440;2023-02-01T09:08:13;9.35;;;2.83;;
19554;SDS011;9924;50.828;6.440;2023-02-01T09:11:02;21.30;;;4.35;;
19554;SDS011;9924;50.828;6.440;2023-02-01T09:13:48;16.80;;;3.22;;
19554;SDS011;9924;50.828;6.440;2023-02-01T09:16:33;16.55;;;3.30;;
19554;SDS011;9924;50.828;6.440;2023-02-01T09:19:17;11.27;;;3.30;;
19554;SDS011;9924;50.828;6.440;2023-02-01T09:22:02;16.05;;;3.15;;
19554;SDS011;9924;50.828;6.440;2023-02-01T09:24:46;18.50;;;3.75;;
19554;SDS011;9924;50.828;6.440;2023-02-01T09:27:30;15.75;;;4.10;;
19554;SDS011;9924;50.828;6.440;2023-02-01T09:30:14;17.75;;;3.05;;
19554;SDS011;9924;50.828;6.440;2023-02-01T09:32:59;14.43;;;3.20;;
19554;SDS011;9924;50.828;6.440;2023-02-01T09:35:43;10.55;;;2.92;;
19554;SDS011;9924;50.828;6.440;2023-02-01T09:38:27;19.63;;;3.28;;
19554;SDS011;9924;50.828;6.440;2023-02-01T09:47:34;15.73;;;3.30;;
19554;SDS011;9924;50.828;6.440;2023-02-01T09:50:21;17.35;;;3.67;;
19554;SDS011;9924;50.828;6.440;2023-02-01T09:53:17;14.10;;;3.00;;
19554;SDS011;9924;50.828;6.440;2023-02-01T09:56:40;15.25;;;3.42;;
19554;SDS011;9924;50.828;6.440;2023-02-01T09:59:50;21.75;;;4.15;;
19554;SDS011;9924;50.828;6.440;2023-02-01T10:02:40;14.65;;;3.30;;
19554;SDS011;9924;50.828;6.440;2023-02-01T10:08:56;15.57;;;2.72;;
19554;SDS011;9924;50.828;6.440;2023-02-01T10:14:52;20.60;;;3.67;;
19554;SDS011;9924;50.828;6.440;2023-02-01T10:18:01;14.20;;;3.72;;
19554;SDS011;9924;50.828;6.440;2023-02-01T10:24:18;18.92;;;3.40;;
19554;SDS011;9924;50.828;6.440;2023-02-01T10:27:42;15.25;;;3.30;;
19554;SDS011;9924;50.828;6.440;2023-02-01T10:30:29;16.35;;;3.65;;
19554;SDS011;9924;50.828;6.440;2023-02-01T10:33:22;10.07;;;3.08;;
19554;SDS011;9924;50.828;6.440;2023-02-01T10:39:05;10.48;;;2.58;;
19554;SDS011;9924;50.828;6.440;2023-02-01T10:41:51;10.32;;;3.38;;
19554;SDS011;9924;50.828;6.440;2023-02-01T10:44:38;13.05;;;3.78;;
19554;SDS011;9924;50.828;6.440;2023-02-01T10:47:28;18.25;;;3.67;;
19554;SDS011;9924;50.828;6.440;2023-02-01T10:50:20;16.95;;;3.20;;
19554;SDS011;9924;50.828;6.440;2023-02-01T10:53:22;17.35;;;3.25;;
19554;SDS011;9924;50.828;6.440;2023-02-01T10:56:13;16.27;;;2.75;;
19554;SDS011;9924;50.828;6.440;2023-02-01T10:59:02;19.45;;;4.00;;
19554;SDS011;9924;50.828;6.440;2023-02-01T11:01:59;17.52;;;3.65;;
19554;SDS011;9924;50.828;6.440;2023-02-01T11:04:45;14.07;;;3.47;;
19554;SDS011;9924;50.828;6.440;2023-02-01T11:07:29;10.45;;;2.78;;
19554;SDS011;9924;50.828;6.440;2023-02-01T11:13:19;18.63;;;3.45;;
19554;SDS011;9924;50.828;6.440;2023-02-01T11:16:04;15.38;;;2.97;;
19554;SDS011;9924;50.828;6.440;2023-02-01T11:18:52;14.82;;;3.97;;
19554;SDS011;9924;50.828;6.440;2023-02-01T11:21:38;15.25;;;2.95;;
19554;SDS011;9924;50.828;6.440;2023-02-01T11:24:26;14.57;;;2.92;;
19554;SDS011;9924;50.828;6.440;2023-02-01T11:27:22;15.02;;;3.03;;
19554;SDS011;9924;50.828;6.440;2023-02-01T11:30:13;17.88;;;3.50;;
19554;SDS011;9924;50.828;6.440;2023-02-01T11:33:01;15.18;;;2.92;;
19554;SDS011;9924;50.828;6.440;2023-02-01T11:35:47;11.18;;;2.45;;
19554;SDS011;9924;50.828;6.440;2023-02-01T11:38:33;8.80;;;2.75;;
19554;SDS011;9924;50.828;6.440;2023-02-01T11:41:25;12.45;;;2.72;;
19554;SDS011;9924;50.828;6.440;2023-02-01T11:44:21;11.30;;;2.95;;
19554;SDS011;9924;50.828;6.440;2023-02-01T11:47:23;17.42;;;3.30;;
19554;SDS011;9924;50.828;6.440;2023-02-01T11:50:18;19.95;;;3.03;;
19554;SDS011;9924;50.828;6.440;2023-02-01T11:53:20;17.75;;;3.47;;
19554;SDS011;9924;50.828;6.440;2023-02-01T11:56:32;11.95;;;2.95;;
19554;SDS011;9924;50.828;6.440;2023-02-01T12:08:22;11.85;;;3.03;;
19554;SDS011;9924;50.828;6.440;2023-02-01T12:11:24;16.25;;;2.90;;
19554;SDS011;9924;50.828;6.440;2023-02-01T12:14:30;15.45;;;3.08;;
19554;SDS011;9924;50.828;6.440;2023-02-01T12:31:06;19.40;;;5.88;;
19554;SDS011;9924;50.828;6.440;2023-02-01T12:36:24;10.27;;;2.70;;
19554;SDS011;9924;50.828;6.440;2023-02-01T12:39:27;15.60;;;3.47;;
19554;SDS011;9924;50.828;6.440;2023-02-01T12:48:29;16.45;;;4.70;;
19554;SDS011;9924;50.828;6.440;2023-02-01T12:51:19;21.60;;;3.20;;
19554;SDS011;9924;50.828;6.440;2023-02-01T12:54:31;10.43;;;2.97;;
19554;SDS011;9924;50.828;6.440;2023-02-01T12:57:23;11.93;;;2.40;;
19554;SDS011;9924;50.828;6.440;2023-02-01T13:00:20;13.57;;;3.33;;
19554;SDS011;9924;50.828;6.440;2023-02-01T13:06:15;16.52;;;3.88;;
19554;SDS011;9924;50.828;6.440;2023-02-01T13:09:09;17.13;;;4.15;;
19554;SDS011;9924;50.828;6.440;2023-02-01T13:12:15;11.60;;;3.25;;
19554;SDS011;9924;50.828;6.440;2023-02-01T13:15:31;16.25;;;4.45;;
19554;SDS011;9924;50.828;6.440;2023-02-01T13:18:25;16.17;;;3.00;;
19554;SDS011;9924;50.828;6.440;2023-02-01T13:21:17;18.05;;;4.00;;
19554;SDS011;9924;50.828;6.440;2023-02-01T13:24:14;13.52;;;2.85;;
19554;SDS011;9924;50.828;6.440;2023-02-01T13:27:08;12.05;;;3.20;;
19554;SDS011;9924;50.828;6.440;2023-02-01T13:36:28;11.40;;;3.05;;
19554;SDS011;9924;50.828;6.440;2023-02-01T13:43:01;14.30;;;3.35;;
19554;SDS011;9924;50.828;6.440;2023-02-01T13:46:09;16.63;;;2.83;;
19554;SDS011;9924;50.828;6.440;2023-02-01T13:49:00;13.38;;;2.53;;
19554;SDS011;9924;50.828;6.440;2023-02-01T13:51:48;14.35;;;2.92;;
19554;SDS011;9924;50.828;6.440;2023-02-01T13:54:38;11.93;;;2.40;;
19554;SDS011;9924;50.828;6.440;2023-02-01T13:57:36;13.57;;;2.10;;
19554;SDS011;9924;50.828;6.440;2023-02-01T14:00:30;11.65;;;2.35;;
19554;SDS011;9924;50.828;6.440;2023-02-01T14:03:22;12.15;;;2.90;;
19554;SDS011;9924;50.828;6.440;2023-02-01T14:09:16;12.52;;;2.75;;
19554;SDS011;9924;50.828;6.440;2023-02-01T14:15:27;12.18;;;2.85;;
19554;SDS011;9924;50.828;6.440;2023-02-01T14:26:56;17.13;;;6.30;;
19554;SDS011;9924;50.828;6.440;2023-02-01T14:29:44;11.80;;;3.42;;
19554;SDS011;9924;50.828;6.440;2023-02-01T14:32:41;19.95;;;6.60;;
19554;SDS011;9924;50.828;6.440;2023-02-01T14:35:30;21.92;;;7.82;;
19554;SDS011;9924;50.828;6.440;2023-02-01T14:38:14;14.50;;;3.42;;
19554;SDS011;9924;50.828;6.440;2023-02-01T14:41:12;11.57;;;3.67;;
19554;SDS011;9924;50.828;6.440;2023-02-01T14:50:12;13.50;;;3.75;;
19554;SDS011;9924;50.828;6.440;2023-02-01T14:55:59;12.52;;;3.25;;
19554;SDS011;9924;50.828;6.440;2023-02-01T14:58:57;14.93;;;6.20;;
19554;SDS011;9924;50.828;6.440;2023-02-01T15:01:50;9.10;;;2.55;;
19554;SDS011;9924;50.828;6.440;2023-02-01T15:04:41;6.15;;;2.20;;
19554;SDS011;9924;50.828;6.440;2023-02-01T15:07:26;6.35;;;1.95;;
19554;SDS011;9924;50.828;6.440;2023-02-01T15:10:12;10.40;;;2.35;;
19554;SDS011;9924;50.828;6.440;2023-02-01T15:12:56;10.25;;;2.45;;
19554;SDS011;9924;50.828;6.440;2023-02-01T15:15:41;18.27;;;2.90;;
19554;SDS011;9924;50.828;6.440;2023-02-01T15:18:25;13.05;;;2.85;;
19554;SDS011;9924;50.828;6.440;2023-02-01T15:21:18;13.15;;;3.13;;
19554;SDS011;9924;50.828;6.440;2023-02-01T15:24:21;5.50;;;1.42;;
19554;SDS011;9924;50.828;6.440;2023-02-01T15:27:08;10.32;;;1.98;;
19554;SDS011;9924;50.828;6.440;2023-02-01T15:29:54;13.52;;;1.63;;
19554;SDS011;9924;50.828;6.440;2023-02-01T15:33:08;5.43;;;1.55;;
19554;SDS011;9924;50.828;6.440;2023-02-01T15:36:08;11.88;;;2.00;;
19554;SDS011;9924;50.828;6.440;2023-02-01T15:39:12;9.68;;;1.80;;
19554;SDS011;9924;50.828;6.440;2023-02-01T15:42:12;12.38;;;2.30;;
19554;SDS011;9924;50.828;6.440;2023-02-01T15:45:02;7.75;;;2.33;;
19554;SDS011;9924;50.828;6.440;2023-02-01T15:47:47;9.25;;;2.78;;
19554;SDS011;9924;50.828;6.440;2023-02-01T15:50:33;8.30;;;2.63;;
19554;SDS011;9924;50.828;6.440;2023-02-01T15:53:24;12.30;;;3.70;;
19554;SDS011;9924;50.828;6.440;2023-02-01T15:56:14;6.18;;;2.38;;
19554;SDS011;9924;50.828;6.440;2023-02-01T15:59:00;8.25;;;2.20;;
19554;SDS011;9924;50.828;6.440;2023-02-01T16:01:47;13.75;;;3.42;;
19554;SDS011;9924;50.828;6.440;2023-02-01T16:04:33;11.07;;;3.67;;
19554;SDS011;9924;50.828;6.440;2023-02-01T16:07:34;11.35;;;2.70;;
19554;SDS011;9924;50.828;6.440;2023-02-01T16:10:24;10.90;;;3.45;;
19554;SDS011;9924;50.828;6.440;2023-02-01T16:13:11;8.13;;;3.13;;
19554;SDS011;9924;50.828;6.440;2023-02-01T16:15:56;13.43;;;3.15;;
19554;SDS011;9924;50.828;6.440;2023-02-01T16:18:41;13.73;;;3.13;;
19554;SDS011;9924;50.828;6.440;2023-02-01T16:21:25;10.15;;;3.95;;
19554;SDS011;9924;50.828;6.440;2023-02-01T16:24:09;9.48;;;3.35;;
19554;SDS011;9924;50.828;6.440;2023-02-01T16:26:54;11.57;;;2.38;;
19554;SDS011;9924;50.828;6.440;2023-02-01T16:29:38;11.82;;;3.40;;
19554;SDS011;9924;50.828;6.440;2023-02-01T16:32:23;16.10;;;2.72;;
19554;SDS011;9924;50.828;6.440;2023-02-01T16:38:22;12.55;;;2.90;;
19554;SDS011;9924;50.828;6.440;2023-02-01T16:41:09;11.57;;;3.30;;
19554;SDS011;9924;50.828;6.440;2023-02-01T16:43:56;17.35;;;3.25;;
19554;SDS011;9924;50.828;6.440;2023-02-01T16:46:44;14.00;;;6.00;;
19554;SDS011;9924;50.828;6.440;2023-02-01T16:49:30;11.23;;;3.47;;
19554;SDS011;9924;50.828;6.440;2023-02-01T16:52:16;14.27;;;4.07;;
19554;SDS011;9924;50.828;6.440;2023-02-01T16:55:11;15.68;;;4.13;;
19554;SDS011;9924;50.828;6.440;2023-02-01T16:58:00;13.45;;;3.78;;
19554;SDS011;9924;50.828;6.440;2023-02-01T17:00:46;21.83;;;4.95;;
19554;SDS011;9924;50.828;6.440;2023-02-01T17:03:31;15.35;;;4.25;;
19554;SDS011;9924;50.828;6.440;2023-02-01T17:06:19;17.48;;;3.95;;
19554;SDS011;9924;50.828;6.440;2023-02-01T17:09:05;19.52;;;4.15;;
19554;SDS011;9924;50.828;6.440;2023-02-01T17:11:50;14.10;;;3.35;;
19554;SDS011;9924;50.828;6.440;2023-02-01T17:14:35;11.45;;;3.70;;
19554;SDS011;9924;50.828;6.440;2023-02-01T17:17:25;16.75;;;5.30;;
19554;SDS011;9924;50.828;6.440;2023-02-01T17:20:22;12.63;;;4.03;;
19554;SDS011;9924;50.828;6.440;2023-02-01T17:23:08;14.77;;;4.00;;
19554;SDS011;9924;50.828;6.440;2023-02-01T17:25:53;21.83;;;4.32;;
19554;SDS011;9924;50.828;6.440;2023-02-01T17:28:38;12.73;;;4.22;;
19554;SDS011;9924;50.828;6.440;2023-02-01T17:31:22;10.95;;;3.58;;
19554;SDS011;9924;50.828;6.440;2023-02-01T17:34:10;9.60;;;4.53;;
19554;SDS011;9924;50.828;6.440;2023-02-01T17:36:58;15.57;;;4.43;;
19554;SDS011;9924;50.828;6.440;2023-02-01T17:39:42;14.27;;;3.92;;
19554;SDS011;9924;50.828;6.440;2023-02-01T17:42:39;14.90;;;4.68;;
19554;SDS011;9924;50.828;6.440;2023-02-01T17:48:21;15.35;;;3.83;;
19554;SDS011;9924;50.828;6.440;2023-02-01T17:51:16;16.02;;;3.97;;
19554;SDS011;9924;50.828;6.440;2023-02-01T17:54:01;10.23;;;3.88;;
19554;SDS011;9924;50.828;6.440;2023-02-01T17:56:47;8.98;;;3.15;;
19554;SDS011;9924;50.828;6.440;2023-02-01T17:59:32;12.02;;;3.25;;
19554;SDS011;9924;50.828;6.440;2023-02-01T18:02:18;15.90;;;3.90;;
19554;SDS011;9924;50.828;6.440;2023-02-01T18:05:09;14.57;;;3.40;;
19554;SDS011;9924;50.828;6.440;2023-02-01T18:08:06;11.75;;;4.00;;
19554;SDS011;9924;50.828;6.440;2023-02-01T18:10:51;14.05;;;3.78;;
19554;SDS011;9924;50.828;6.440;2023-02-01T18:13:43;15.13;;;3.92;;
19554;SDS011;9924;50.828;6.440;2023-02-01T18:16:31;17.20;;;4.25;;
19554;SDS011;9924;50.828;6.440;2023-02-01T18:19:20;19.73;;;6.00;;
19554;SDS011;9924;50.828;6.440;2023-02-01T18:22:05;15.55;;;4.95;;
19554;SDS011;9924;50.828;6.440;2023-02-01T18:24:52;13.82;;;4.35;;
19554;SDS011;9924;50.828;6.440;2023-02-01T18:27:36;16.45;;;4.45;;
19554;SDS011;9924;50.828;6.440;2023-02-01T18:30:22;16.92;;;4.15;;
19554;SDS011;9924;50.828;6.440;2023-02-01T18:33:14;23.27;;;4.85;;
19554;SDS011;9924;50.828;6.440;2023-02-01T18:36:00;16.85;;;4.72;;
19554;SDS011;9924;50.828;6.440;2023-02-01T18:38:44;13.82;;;4.60;;
19554;SDS011;9924;50.828;6.440;2023-02-01T18:41:28;10.48;;;4.60;;
19554;SDS011;9924;50.828;6.440;2023-02-01T18:44:13;17.40;;;4.80;;
19554;SDS011;9924;50.828;6.440;2023-02-01T18:46:58;15.43;;;5.63;;
19554;SDS011;9924;50.828;6.440;2023-02-01T18:49:43;19.63;;;4.97;;
19554;SDS011;9924;50.828;6.440;2023-02-01T18:52:27;13.30;;;3.70;;
19554;SDS011;9924;50.828;6.440;2023-02-01T18:55:11;12.93;;;3.47;;
19554;SDS011;9924;50.828;6.440;2023-02-01T18:57:55;15.95;;;3.90;;
19554;SDS011;9924;50.828;6.440;2023-02-01T19:00:39;18.98;;;3.53;;
19554;SDS011;9924;50.828;6.440;2023-02-01T19:03:24;13.13;;;3.67;;